Time;durP1;ratioP1;P1;durP2;ratioP2;P2;SDS_P1;SDS_P2;PMS_P1;PMS_P2;Temp;Humidity;BMP_temperature;BMP_pressure;BME280_temperature;BME280_humidity;BME280_pressure;Samples;Min_cycle;Max_cycle;Signal;HPM_P1;HPM_P2
2023/10/31 00:02:02;;;;;;;;;2.00;2.00;;;;;11.12;96.41;99591.16;5027280;28;10793;-67
2023/10/31 00:04:28;;;;;;;;;2.00;2.00;;;;;11.13;96.55;99592.78;5033204;28;10003;-68
2023/10/31 00:06:55;;;;;;;;;5.00;4.50;;;;;11.11;96.58;99586.81;5032430;28;9924;-67
2023/10/31 00:09:21;;;;;;;;;2.75;2.75;;;;;11.11;96.68;99586.81;5026879;28;10074;-67
2023/10/31 00:11:48;;;;;;;;;2.00;2.00;;;;;11.10;96.33;99587.84;5024218;28;9961;-70
2023/10/31 00:14:14;;;;;;;;;3.75;3.75;;;;;11.08;96.47;99590.78;5031636;28;9788;-67
2023/10/31 00:16:59;;;;;;;;;9.00;4.00;;;;;11.08;96.48;99579.19;5032484;28;9935;-67
2023/10/31 00:19:26;;;;;;;;;5.00;3.00;;;;;11.05;96.42;99583.16;5031617;28;10009;-67
2023/10/31 00:21:53;;;;;;;;;3.00;3.00;;;;;11.06;96.58;99587.50;5032121;28;10012;-68
2023/10/31 00:24:19;;;;;;;;;4.25;3.50;;;;;11.06;96.39;99586.66;5026040;28;9920;-68
2023/10/31 00:26:46;;;;;;;;;3.00;3.00;;;;;11.04;96.53;99586.91;5032885;28;10306;-67
2023/10/31 00:29:12;;;;;;;;;3.50;3.50;;;;;11.05;96.56;99585.03;5032724;28;10016;-68
2023/10/31 00:31:41;;;;;;;;;7.00;4.25;;;;;11.04;96.29;99586.91;5030716;28;10036;-68
2023/10/31 00:34:08;;;;;;;;;5.50;4.50;;;;;11.05;96.84;99585.03;5023143;28;10796;-67
2023/10/31 00:36:34;;;;;;;;;4.50;3.50;;;;;11.04;96.59;99586.91;5030487;28;10187;-68
2023/10/31 00:39:01;;;;;;;;;2.25;2.25;;;;;11.06;96.36;99581.25;5041888;28;9920;-67
2023/10/31 00:41:29;;;;;;;;;3.25;3.25;;;;;11.06;96.49;99586.66;5016803;28;9924;-68
2023/10/31 00:43:55;;;;;;;;;4.50;4.50;;;;;11.08;96.81;99585.38;5031492;28;10088;-68
2023/10/31 00:46:22;;;;;;;;;8.00;7.00;;;;;11.08;96.56;99584.56;5030423;28;10084;-68
2023/10/31 00:48:48;;;;;;;;;3.00;3.00;;;;;11.06;96.55;99582.13;5030919;28;10009;-67
2023/10/31 00:51:14;;;;;;;;;6.25;6.25;;;;;11.05;96.35;99590.41;5030385;28;10732;-68
2023/10/31 00:53:41;;;;;;;;;4.00;4.00;;;;;11.05;96.42;99596.59;5041825;28;10022;-68
2023/10/31 00:56:08;;;;;;;;;5.50;5.50;;;;;11.05;96.55;99601.19;5026510;28;9946;-66
2023/10/31 00:58:35;;;;;;;;;7.00;6.25;;;;;11.07;96.53;99604.47;5027337;28;10204;-69
2023/10/31 01:01:01;;;;;;;;;4.50;4.50;;;;;11.07;96.60;99601.78;5034375;28;10081;-66
2023/10/31 01:03:28;;;;;;;;;7.75;7.50;;;;;11.07;96.56;99596.41;5021574;28;10164;-67
2023/10/31 01:05:55;;;;;;;;;7.00;7.00;;;;;11.04;96.65;99605.75;5029383;28;10243;-66
2023/10/31 01:08:21;;;;;;;;;8.00;8.00;;;;;11.04;96.72;99607.63;5027070;28;10176;-67
2023/10/31 01:10:48;;;;;;;;;9.00;8.75;;;;;11.02;96.78;99607.84;5012065;28;10158;-67
2023/10/31 01:13:15;;;;;;;;;13.00;9.50;;;;;10.98;96.83;99608.50;5021497;28;10972;-66
2023/10/31 01:15:41;;;;;;;;;10.25;10.25;;;;;10.94;97.34;99610.00;5031422;28;10929;-68
2023/10/31 01:18:08;;;;;;;;;11.75;8.25;;;;;10.91;97.45;99611.31;5030801;28;10169;-68
2023/10/31 01:20:34;;;;;;;;;7.25;7.25;;;;;10.94;97.56;99620.78;5031644;28;10211;-68
2023/10/31 01:23:01;;;;;;;;;9.50;9.00;;;;;10.92;97.44;99614.81;5029588;28;10047;-68
2023/10/31 01:25:28;;;;;;;;;11.00;9.25;;;;;10.92;97.82;99617.50;5030240;28;10103;-68
2023/10/31 01:27:55;;;;;;;;;8.75;7.50;;;;;10.92;97.53;99621.03;5024778;28;10009;-68
2023/10/31 01:30:21;;;;;;;;;5.00;4.75;;;;;10.96;98.02;99619.53;5025267;28;9905;-67
2023/10/31 01:32:48;;;;;;;;;6.50;6.50;;;;;10.96;97.77;99624.09;5029110;28;10058;-67
2023/10/31 01:35:15;;;;;;;;;2.75;2.75;;;;;10.99;97.79;99629.84;5029425;28;9978;-68
2023/10/31 01:37:41;;;;;;;;;3.75;3.75;;;;;10.99;98.07;99629.03;5030698;28;9852;-68
2023/10/31 01:40:12;;;;;;;;;4.25;3.50;;;;;10.99;97.65;99637.09;5029962;28;9863;-69
2023/10/31 01:42:38;;;;;;;;;3.50;3.00;;;;;10.98;97.72;99636.28;5038272;28;9877;-69
2023/10/31 01:45:07;;;;;;;;;7.50;2.50;;;;;10.98;97.58;99640.81;5030211;28;9751;-67
2023/10/31 01:47:33;;;;;;;;;2.50;2.50;;;;;10.98;97.66;99654.28;5030864;28;9849;-69
2023/10/31 01:50:00;;;;;;;;;3.00;1.25;;;;;10.99;97.75;99651.38;5012545;28;9755;-69
2023/10/31 01:52:27;;;;;;;;;2.75;2.75;;;;;11.00;97.77;99660.28;5031141;28;9620;-69
2023/10/31 01:54:54;;;;;;;;;2.00;0.00;;;;;10.98;97.71;99656.97;5030346;28;9868;-70
2023/10/31 01:57:22;;;;;;;;;2.00;2.00;;;;;10.96;97.88;99659.09;5025310;28;9871;-69
2023/10/31 01:59:49;;;;;;;;;1.50;1.50;;;;;10.93;97.75;99660.34;5046331;28;9748;-69
2023/10/31 02:02:16;;;;;;;;;2.25;1.00;;;;;10.93;97.82;99659.53;5026774;28;9690;-69
2023/10/31 02:04:43;;;;;;;;;1.00;1.00;;;;;10.93;97.67;99662.22;5028304;28;9758;-69
2023/10/31 02:07:09;;;;;;;;;2.00;1.25;;;;;10.94;98.00;99662.03;5016206;28;9672;-69
2023/10/31 02:09:36;;;;;;;;;2.25;2.25;;;;;10.94;97.96;99658.47;5028725;28;9679;-69
2023/10/31 02:12:03;;;;;;;;;3.00;0.75;;;;;10.95;97.67;99660.16;5028088;28;9621;-68
2023/10/31 02:14:29;;;;;;;;;0.00;0.00;;;;;10.95;97.88;99660.97;5045394;28;10358;-69
2023/10/31 02:16:56;;;;;;;;;0.25;0.25;;;;;10.96;98.03;99670.69;5031110;28;9594;-69
2023/10/31 02:19:22;;;;;;;;;2.00;0.00;;;;;10.93;97.74;99660.34;5029539;28;9883;-66
2023/10/31 02:21:49;;;;;;;;;1.00;1.00;;;;;10.92;98.08;99669.47;5031101;28;9601;-69
2023/10/31 02:24:16;;;;;;;;;0.25;0.25;;;;;10.89;97.87;99668.06;5028795;28;9853;-69
2023/10/31 02:26:42;;;;;;;;;1.25;1.00;;;;;10.91;98.06;99664.34;5024666;28;9676;-69
2023/10/31 02:29:09;;;;;;;;;1.00;1.00;;;;;10.92;98.02;99671.34;5033019;28;9595;-69
2023/10/31 02:31:36;;;;;;;;;0.00;0.00;;;;;10.91;98.32;99662.47;5033122;28;9690;-69
2023/10/31 02:34:02;;;;;;;;;0.00;0.00;;;;;10.85;97.95;99666.03;5026908;28;9686;-69
2023/10/31 02:36:30;;;;;;;;;0.00;0.00;;;;;10.86;98.17;99670.41;5027264;28;9611;-69
2023/10/31 02:38:57;;;;;;;;;0.00;0.00;;;;;10.85;98.48;99674.94;5024842;28;9681;-69
2023/10/31 02:41:24;;;;;;;;;0.00;0.00;;;;;10.84;98.42;99686.75;5004211;28;9670;-68
2023/10/31 02:43:50;;;;;;;;;0.00;0.00;;;;;10.84;98.48;99680.56;5033725;28;9683;-68
2023/10/31 02:46:17;;;;;;;;;1.00;0.00;;;;;10.84;98.19;99686.75;5029564;28;9659;-67
2023/10/31 02:48:44;;;;;;;;;0.00;0.00;;;;;10.85;98.19;99691.09;5038721;28;9661;-69
2023/10/31 02:51:11;;;;;;;;;0.00;0.00;;;;;10.83;98.21;99689.69;5026679;28;9600;-69
2023/10/31 02:53:37;;;;;;;;;0.00;0.00;;;;;10.82;98.26;99691.56;5046060;28;9746;-69
2023/10/31 02:56:04;;;;;;;;;0.00;0.00;;;;;10.83;97.98;99697.75;5027495;28;9663;-66
2023/10/31 02:58:31;;;;;;;;;0.00;0.00;;;;;10.79;97.48;99708.16;5033471;28;9624;-69
2023/10/31 03:00:57;;;;;;;;;0.00;0.00;;;;;10.76;98.03;99700.50;5042253;28;9629;-69
2023/10/31 03:03:24;;;;;;;;;1.00;0.00;;;;;10.77;97.82;99699.47;5046552;28;9604;-68
2023/10/31 03:05:50;;;;;;;;;0.25;0.00;;;;;10.79;97.89;99704.63;5024626;28;9547;-69
2023/10/31 03:08:20;;;;;;;;;0.00;0.00;;;;;10.80;98.11;99707.09;5028284;28;9345;-70
2023/10/31 03:10:49;;;;;;;;;0.00;0.00;;;;;10.81;97.64;99714.13;5029243;28;9673;-69
2023/10/31 03:13:17;;;;;;;;;0.00;0.00;;;;;10.81;97.62;99716.81;5040974;28;9559;-68
2023/10/31 03:15:44;;;;;;;;;0.00;0.00;;;;;10.82;97.61;99720.34;5028452;28;9624;-69
2023/10/31 03:18:10;;;;;;;;;0.00;0.00;;;;;10.80;97.61;99725.13;5026830;28;9794;-69
2023/10/31 03:20:37;;;;;;;;;0.00;0.00;;;;;10.77;97.58;99726.38;5010799;28;10267;-69
2023/10/31 03:23:03;;;;;;;;;0.00;0.00;;;;;10.77;97.45;99729.06;5014716;28;9581;-69
2023/10/31 03:25:30;;;;;;;;;0.00;0.00;;;;;10.79;97.54;99727.00;5029823;28;9570;-69
2023/10/31 03:27:57;;;;;;;;;0.50;0.00;;;;;10.80;97.56;99734.00;5034242;28;9762;-69
2023/10/31 03:30:24;;;;;;;;;1.00;0.00;;;;;10.81;97.64;99741.03;5034955;28;9741;-69
2023/10/31 03:32:50;;;;;;;;;0.00;0.00;;;;;10.82;97.41;99737.31;5024288;28;9739;-70
2023/10/31 03:35:17;;;;;;;;;0.00;0.00;;;;;10.78;97.28;99729.91;5031314;28;9773;-69
2023/10/31 03:37:44;;;;;;;;;0.00;0.00;;;;;10.75;97.71;99747.31;5030172;28;9774;-70
2023/10/31 03:40:11;;;;;;;;;0.00;0.00;;;;;10.77;97.81;99745.22;5035279;28;10409;-69
2023/10/31 03:42:38;;;;;;;;;0.00;0.00;;;;;10.78;97.54;99746.88;5041981;28;9584;-69
2023/10/31 03:45:06;;;;;;;;;0.00;0.00;;;;;10.78;97.72;99746.88;5033647;28;9593;-70
2023/10/31 03:47:32;;;;;;;;;0.00;0.00;;;;;10.80;97.72;99752.03;5036600;28;9596;-69
2023/10/31 03:49:59;;;;;;;;;0.00;0.00;;;;;10.83;97.82;99756.97;5037275;28;11138;-69
2023/10/31 03:52:25;;;;;;;;;0.00;0.00;;;;;10.84;97.63;99755.94;5037762;28;9811;-69
2023/10/31 03:54:52;;;;;;;;;0.00;0.00;;;;;10.85;97.57;99760.25;5033279;28;9560;-69
2023/10/31 03:57:18;;;;;;;;;0.00;0.00;;;;;10.84;97.68;99761.31;5028087;28;9600;-68
2023/10/31 03:59:45;;;;;;;;;1.00;0.00;;;;;10.84;97.81;99767.53;5034939;28;9742;-68
2023/10/31 04:02:11;;;;;;;;;0.00;0.00;;;;;10.85;97.61;99758.38;5025080;28;9543;-68
2023/10/31 04:04:38;;;;;;;;;0.00;0.00;;;;;10.87;98.01;99766.25;5042449;28;9476;-68
2023/10/31 04:07:04;;;;;;;;;0.00;0.00;;;;;10.87;97.63;99767.09;5036803;28;9673;-67
2023/10/31 04:09:31;;;;;;;;;0.00;0.00;;;;;10.87;97.77;99774.34;5031706;28;10389;-68
2023/10/31 04:11:57;;;;;;;;;0.00;0.00;;;;;10.87;97.84;99768.94;5034577;28;9675;-68
2023/10/31 04:14:24;;;;;;;;;0.00;0.00;;;;;10.89;98.20;99762.28;5031168;28;9637;-67
2023/10/31 04:16:51;;;;;;;;;0.00;0.00;;;;;10.88;97.72;99771.41;5034524;28;9630;-68
2023/10/31 04:19:18;;;;;;;;;0.00;0.00;;;;;10.89;98.00;99769.53;5032922;28;9596;-68
2023/10/31 04:21:45;;;;;;;;;0.00;0.00;;;;;10.87;97.61;99769.78;5033504;28;9595;-68
2023/10/31 04:24:11;;;;;;;;;0.00;0.00;;;;;10.87;98.09;99772.47;5032018;28;9597;-69
2023/10/31 04:26:40;;;;;;;;;0.00;0.00;;;;;10.86;97.76;99770.81;5031542;28;9485;-68
2023/10/31 04:29:07;;;;;;;;;0.00;0.00;;;;;10.85;98.09;99771.84;5033494;28;9657;-67
2023/10/31 04:31:33;;;;;;;;;0.00;0.00;;;;;10.84;98.13;99777.47;5032291;28;9687;-68
2023/10/31 04:34:09;;;;;;;;;0.00;0.00;;;;;10.86;98.24;99775.41;5044347;28;9755;-68
2023/10/31 04:36:35;;;;;;;;;0.00;0.00;;;;;10.86;98.35;99775.41;5033915;28;10383;-68
2023/10/31 04:39:02;;;;;;;;;0.00;0.00;;;;;10.87;98.15;99777.03;5042742;28;9694;-68
2023/10/31 04:41:28;;;;;;;;;0.00;0.00;;;;;10.85;97.89;99781.81;5031202;28;9675;-67
2023/10/31 04:43:55;;;;;;;;;0.00;0.00;;;;;10.83;98.18;99779.34;5032099;28;9665;-67
2023/10/31 04:46:21;;;;;;;;;0.00;0.00;;;;;10.82;98.01;99785.78;5026888;28;9632;-66
2023/10/31 04:48:48;;;;;;;;;0.00;0.00;;;;;10.83;98.12;99778.53;5019074;28;9573;-68
2023/10/31 04:51:15;;;;;;;;;0.00;0.00;;;;;10.80;98.19;99782.47;5030850;28;9711;-66
2023/10/31 04:53:41;;;;;;;;;0.00;0.00;;;;;10.81;98.37;99785.97;5032463;28;9540;-67
2023/10/31 04:56:17;;;;;;;;;1.50;0.00;;;;;10.80;98.42;99784.34;5025967;28;9458;-67
2023/10/31 04:58:44;;;;;;;;;0.00;0.00;;;;;10.80;98.29;99795.94;5034459;28;9670;-67
2023/10/31 05:01:14;;;;;;;;;0.25;0.00;;;;;10.80;98.45;99805.88;5027686;28;9437;-67
2023/10/31 05:03:40;;;;;;;;;0.00;0.00;;;;;10.74;98.48;99804.09;5024249;28;9476;-68
2023/10/31 05:06:07;;;;;;;;;1.00;0.00;;;;;10.76;99.00;99807.38;5026344;28;9555;-68
2023/10/31 05:08:33;;;;;;;;;0.00;0.00;;;;;10.77;98.96;99809.81;5029610;28;9796;-66
2023/10/31 05:11:00;;;;;;;;;0.00;0.00;;;;;10.80;98.73;99812.09;5035710;28;9534;-67
2023/10/31 05:13:26;;;;;;;;;0.00;0.00;;;;;10.79;98.80;99813.13;5020521;28;9576;-68
2023/10/31 05:15:53;;;;;;;;;0.00;0.00;;;;;10.81;98.66;99807.50;5023651;28;9674;-68
2023/10/31 05:18:20;;;;;;;;;0.00;0.00;;;;;10.83;98.82;99811.66;5030091;28;9721;-67
2023/10/31 05:20:46;;;;;;;;;0.00;0.00;;;;;10.82;98.60;99807.31;5018658;28;9698;-66
2023/10/31 05:23:13;;;;;;;;;0.00;0.00;;;;;10.76;98.53;99808.19;5029946;28;9622;-68
2023/10/31 05:25:40;;;;;;;;;0.00;0.00;;;;;10.67;98.76;99806.81;5031114;28;9791;-67
2023/10/31 05:28:06;;;;;;;;;0.00;0.00;;;;;10.64;99.12;99813.47;5029802;28;9800;-68
2023/10/31 05:30:33;;;;;;;;;0.00;0.00;;;;;10.68;99.21;99810.34;5028936;28;9846;-68
2023/10/31 05:32:59;;;;;;;;;0.00;0.00;;;;;10.67;98.97;99812.22;5023292;28;9655;-68
2023/10/31 05:35:26;;;;;;;;;0.00;0.00;;;;;10.67;99.37;99831.03;5030476;28;9686;-68
2023/10/31 05:37:53;;;;;;;;;1.50;0.00;;;;;10.67;99.57;99822.97;5035459;28;9694;-67
2023/10/31 05:40:22;;;;;;;;;0.00;0.00;;;;;10.69;99.51;99833.50;5028582;28;9768;-67
2023/10/31 05:42:48;;;;;;;;;0.00;0.00;;;;;10.70;99.08;99835.19;5017966;28;9605;-67
2023/10/31 05:45:15;;;;;;;;;0.00;0.00;;;;;10.69;99.28;99836.19;5031324;28;9751;-68
2023/10/31 05:47:41;;;;;;;;;0.00;0.00;;;;;10.68;99.41;99834.56;5027612;28;9532;-68
2023/10/31 05:50:08;;;;;;;;;0.50;0.00;;;;;10.68;99.42;99838.06;5023609;28;9567;-68
2023/10/31 05:52:35;;;;;;;;;0.00;0.00;;;;;10.65;99.36;99849.25;5031195;28;9610;-67
2023/10/31 05:55:01;;;;;;;;;0.00;0.00;;;;;10.64;99.45;99851.13;5031115;28;9652;-68
2023/10/31 05:57:28;;;;;;;;;0.75;0.75;;;;;10.61;99.40;99851.59;5028055;28;9537;-67
2023/10/31 05:59:55;;;;;;;;;0.00;0.00;;;;;10.63;99.68;99857.56;5028737;28;9535;-68
2023/10/31 06:02:21;;;;;;;;;0.00;0.00;;;;;10.65;99.57;99860.03;5027409;28;9656;-68
2023/10/31 06:04:48;;;;;;;;;0.00;0.00;;;;;10.61;99.63;99853.44;5030146;28;9760;-68
2023/10/31 06:07:15;;;;;;;;;0.00;0.00;;;;;10.62;99.58;99860.50;5015261;28;9680;-68
2023/10/31 06:09:41;;;;;;;;;0.00;0.00;;;;;10.58;99.66;99862.78;5029748;28;9695;-67
2023/10/31 06:12:08;;;;;;;;;2.00;0.00;;;;;10.59;99.77;99866.31;5029571;28;9764;-68
2023/10/31 06:14:34;;;;;;;;;1.25;0.00;;;;;10.62;99.72;99872.06;5014339;28;9829;-68
2023/10/31 06:17:01;;;;;;;;;0.00;0.00;;;;;10.64;99.61;99869.16;5027378;28;9712;-68
2023/10/31 06:19:27;;;;;;;;;0.00;0.00;;;;;10.59;99.42;99882.44;5022110;28;9662;-68
2023/10/31 06:21:54;;;;;;;;;0.00;0.00;;;;;10.57;99.62;99876.44;5022859;28;9805;-68
2023/10/31 06:24:21;;;;;;;;;0.00;0.00;;;;;10.59;99.81;99887.81;5027773;28;9515;-68
2023/10/31 06:26:47;;;;;;;;;0.00;0.00;;;;;10.60;99.92;99879.53;5027502;28;10285;-68
2023/10/31 06:29:13;;;;;;;;;0.00;0.00;;;;;10.61;99.63;99889.28;5017538;28;9671;-67
2023/10/31 06:31:43;;;;;;;;;0.00;0.00;;;;;10.64;99.89;99891.50;5024515;28;9871;-68
2023/10/31 06:34:10;;;;;;;;;0.00;0.00;;;;;10.60;99.90;99886.78;5029556;28;9695;-68
2023/10/31 06:36:36;;;;;;;;;2.75;1.00;;;;;10.60;99.59;99889.47;5024700;28;9691;-68
2023/10/31 06:39:03;;;;;;;;;0.00;0.00;;;;;10.67;100.00;99884.06;5029026;28;9832;-67
2023/10/31 06:41:29;;;;;;;;;0.50;0.50;;;;;10.73;100.00;99892.06;5026334;28;9750;-68
2023/10/31 06:43:56;;;;;;;;;2.00;0.50;;;;;10.74;99.76;99893.72;5019218;28;9727;-66
2023/10/31 06:46:22;;;;;;;;;1.50;0.75;;;;;10.72;99.67;99898.50;5042832;28;9705;-67
2023/10/31 06:48:49;;;;;;;;;3.25;3.25;;;;;10.66;99.54;99896.69;5024912;28;9838;-68
2023/10/31 06:51:15;;;;;;;;;6.00;5.25;;;;;10.66;99.22;99907.47;5029015;28;10096;-67
2023/10/31 06:53:42;;;;;;;;;2.00;2.00;;;;;10.67;99.60;99916.34;5026822;28;9940;-67
2023/10/31 06:56:08;;;;;;;;;6.00;6.00;;;;;10.62;99.25;99917.81;5024134;28;10012;-66
2023/10/31 06:58:35;;;;;;;;;9.50;9.00;;;;;10.62;99.24;99914.31;5027534;28;10054;-66
2023/10/31 07:01:02;;;;;;;;;11.00;9.00;;;;;10.63;99.37;99924.84;5019537;28;10180;-68
2023/10/31 07:03:28;;;;;;;;;9.75;9.25;;;;;10.61;99.27;99932.34;5025990;28;10158;-66
2023/10/31 07:05:56;;;;;;;;;10.00;8.00;;;;;10.62;99.56;99936.66;5021887;28;10156;-66
2023/10/31 07:08:23;;;;;;;;;13.00;12.00;;;;;10.63;99.62;99937.47;5026517;28;10117;-66
2023/10/31 07:10:49;;;;;;;;;13.25;13.25;;;;;10.57;99.46;99936.50;5021720;28;10355;-67
2023/10/31 07:13:16;;;;;;;;;9.25;8.75;;;;;10.59;99.75;99938.97;5024694;28;10321;-67
2023/10/31 07:15:43;;;;;;;;;11.00;11.00;;;;;10.62;99.33;99942.06;5029902;28;10161;-66
2023/10/31 07:18:10;;;;;;;;;7.75;7.75;;;;;10.64;99.44;99949.91;5029171;28;10080;-67
2023/10/31 07:20:36;;;;;;;;;9.25;8.00;;;;;10.63;99.37;99954.47;5029575;28;10160;-68
2023/10/31 07:23:03;;;;;;;;;5.75;5.75;;;;;10.66;99.62;99950.53;5027365;28;10253;-66
2023/10/31 07:25:29;;;;;;;;;7.25;7.25;;;;;10.65;99.82;99965.00;5029690;28;10071;-67
2023/10/31 07:27:56;;;;;;;;;11.50;8.00;;;;;10.68;99.72;99961.88;5028055;28;10149;-68
2023/10/31 07:30:22;;;;;;;;;11.75;7.00;;;;;10.71;99.62;99963.31;5026174;28;10253;-68
2023/10/31 07:32:49;;;;;;;;;6.00;6.00;;;;;10.74;99.34;99970.97;5027731;28;9912;-68
2023/10/31 07:35:16;;;;;;;;;7.00;6.75;;;;;10.75;99.58;99969.94;5029544;28;10006;-67
2023/10/31 07:37:42;;;;;;;;;11.25;8.00;;;;;10.75;99.12;99973.44;5028936;28;10048;-68
2023/10/31 07:40:09;;;;;;;;;6.75;6.00;;;;;10.71;99.38;99977.59;5029384;28;10078;-68
2023/10/31 07:42:36;;;;;;;;;6.25;5.50;;;;;10.73;99.22;99975.50;5024391;28;10021;-68
2023/10/31 07:45:02;;;;;;;;;9.50;6.75;;;;;10.71;99.41;99976.78;5029354;28;10144;-67
2023/10/31 07:47:29;;;;;;;;;5.50;5.50;;;;;10.71;99.15;99983.00;5009506;28;9917;-68
2023/10/31 07:49:56;;;;;;;;;6.00;3.75;;;;;10.73;99.83;99986.28;5019164;28;10018;-67
2023/10/31 07:52:22;;;;;;;;;6.25;4.50;;;;;10.74;99.87;99979.88;5025376;28;9987;-67
2023/10/31 07:54:49;;;;;;;;;4.00;4.00;;;;;10.74;99.93;99982.56;5029597;28;9925;-67
2023/10/31 07:57:15;;;;;;;;;2.25;2.25;;;;;10.77;99.78;99992.88;5029051;28;9939;-67
2023/10/31 07:59:41;;;;;;;;;6.00;5.00;;;;;10.81;99.86;99988.72;5029533;28;9832;-68
2023/10/31 08:02:08;;;;;;;;;5.00;4.00;;;;;10.84;99.80;99998.22;5027135;28;9671;-66
2023/10/31 08:04:35;;;;;;;;;6.00;6.00;;;;;10.84;99.75;100004.44;5025374;28;10636;-67
2023/10/31 08:07:01;;;;;;;;;3.00;3.00;;;;;10.85;99.77;99994.50;5029706;28;9836;-67
2023/10/31 08:09:28;;;;;;;;;4.25;4.25;;;;;10.86;99.79;99993.47;5029728;28;9914;-67
2023/10/31 08:11:55;;;;;;;;;6.50;3.25;;;;;10.87;99.98;99997.81;5029408;28;9950;-67
2023/10/31 08:14:22;;;;;;;;;3.50;3.00;;;;;10.87;100.00;99993.25;5028638;28;9929;-67
2023/10/31 08:16:51;;;;;;;;;3.00;3.00;;;;;10.91;99.92;99990.94;5028796;28;10362;-67
2023/10/31 08:19:18;;;;;;;;;1.00;1.00;;;;;10.93;100.00;99990.72;5029700;28;9822;-67
2023/10/31 08:21:44;;;;;;;;;3.00;3.00;;;;;10.93;100.00;99998.78;5029987;28;9768;-68
2023/10/31 08:24:13;;;;;;;;;3.25;2.00;;;;;10.96;100.00;100001.88;5031967;28;9738;-67
2023/10/31 08:26:39;;;;;;;;;2.50;2.50;;;;;10.97;99.75;100008.09;5032511;28;9813;-67
2023/10/31 08:29:06;;;;;;;;;2.00;2.00;;;;;10.98;100.00;100009.72;5033104;28;9826;-67
2023/10/31 08:31:33;;;;;;;;;3.00;1.50;;;;;11.03;100.00;100012.63;5031467;28;9657;-66
2023/10/31 08:33:59;;;;;;;;;2.00;2.00;;;;;11.08;99.87;100010.91;5031403;28;9728;-67
2023/10/31 08:36:26;;;;;;;;;2.75;2.75;;;;;11.13;99.77;100018.34;5031825;28;9749;-66
2023/10/31 08:38:52;;;;;;;;;2.00;2.00;;;;;11.18;100.00;100020.38;5031108;28;9693;-67
2023/10/31 08:41:20;;;;;;;;;2.75;1.75;;;;;11.21;99.88;100022.63;5032213;28;9841;-67
2023/10/31 08:43:47;;;;;;;;;0.00;0.00;;;;;11.25;99.98;100024.66;5045871;28;9787;-67
2023/10/31 08:46:13;;;;;;;;;2.50;2.00;;;;;11.26;99.81;100020.94;5031941;28;9538;-69
2023/10/31 08:48:40;;;;;;;;;2.00;2.00;;;;;11.29;99.88;100025.88;5031037;28;9681;-67
2023/10/31 08:51:06;;;;;;;;;0.50;0.50;;;;;11.34;99.90;100031.47;5030944;28;9714;-67
2023/10/31 08:53:33;;;;;;;;;1.00;1.00;;;;;11.36;99.92;100026.66;5031526;28;9798;-67
2023/10/31 08:55:59;;;;;;;;;0.50;0.50;;;;;11.41;100.00;100025.19;5028639;28;9770;-67
2023/10/31 08:58:28;;;;;;;;;2.00;1.00;;;;;11.43;99.73;100023.94;5032145;28;9602;-67
2023/10/31 09:00:54;;;;;;;;;3.00;2.00;;;;;11.47;99.80;100029.69;5031663;28;9631;-68
2023/10/31 09:03:21;;;;;;;;;2.00;2.00;;;;;11.50;99.83;100037.31;5031611;28;9677;-69
2023/10/31 09:05:47;;;;;;;;;2.00;2.00;;;;;11.54;99.70;100047.44;5024819;28;9686;-69
2023/10/31 09:08:14;;;;;;;;;2.00;1.00;;;;;11.59;99.76;100052.19;5031313;28;9609;-68
2023/10/31 09:10:42;;;;;;;;;0.00;0.00;;;;;11.62;99.49;100052.56;5032385;28;9597;-69
2023/10/31 09:13:09;;;;;;;;;2.00;2.00;;;;;11.66;99.50;100055.63;5031980;28;9493;-69
2023/10/31 09:15:36;;;;;;;;;2.00;2.00;;;;;11.67;99.52;100060.00;5046304;28;9674;-67
2023/10/31 09:18:03;;;;;;;;;2.75;1.75;;;;;11.74;99.53;100065.31;5019001;28;9622;-69
2023/10/31 09:20:30;;;;;;;;;2.00;1.00;;;;;11.82;99.40;100073.13;5012067;28;9765;-68
2023/10/31 09:22:56;;;;;;;;;1.00;1.00;;;;;11.86;99.16;100064.41;5011870;28;9586;-68
2023/10/31 09:25:23;;;;;;;;;1.75;1.75;;;;;11.94;98.78;100075.97;5023566;28;9653;-67
2023/10/31 09:27:49;;;;;;;;;1.00;1.00;;;;;11.99;98.88;100076.97;5031054;28;9523;-67
2023/10/31 09:30:16;;;;;;;;;1.00;1.00;;;;;12.01;98.96;100079.44;5031427;28;10210;-69
2023/10/31 09:32:42;;;;;;;;;2.50;1.25;;;;;12.09;98.48;100081.84;5029765;28;9549;-70
2023/10/31 09:35:09;;;;;;;;;1.00;1.00;;;;;12.14;98.67;100082.00;5025854;28;9716;-70
2023/10/31 09:37:36;;;;;;;;;1.00;1.00;;;;;12.17;98.30;100078.84;5026551;28;9474;-69
2023/10/31 09:40:02;;;;;;;;;1.00;1.00;;;;;12.26;98.36;100088.28;5031514;28;9428;-67
2023/10/31 09:42:29;;;;;;;;;0.00;0.00;;;;;12.33;98.50;100086.38;5031644;28;9636;-66
2023/10/31 09:44:55;;;;;;;;;1.00;1.00;;;;;12.35;97.98;100086.94;5027923;28;10343;-67
2023/10/31 09:47:22;;;;;;;;;1.00;1.00;;;;;12.37;97.74;100092.97;5028243;28;9308;-69
2023/10/31 09:49:48;;;;;;;;;2.00;1.00;;;;;12.40;97.59;100096.25;5031836;28;9309;-69
2023/10/31 09:52:17;;;;;;;;;0.00;0.00;;;;;12.48;97.56;100104.06;5031436;28;9408;-69
2023/10/31 09:54:44;;;;;;;;;1.33;0.33;;;;;12.55;97.06;100107.50;5030293;28;9359;-68
2023/10/31 09:57:14;;;;;;;;;0.00;0.00;;;;;12.58;96.98;100109.75;5030968;28;9402;-69
2023/10/31 09:59:40;;;;;;;;;1.00;1.00;;;;;12.53;96.38;100101.53;5030092;28;9155;-69
2023/10/31 10:02:07;;;;;;;;;0.67;0.67;;;;;12.58;96.47;100110.59;5031198;28;10136;-70
2023/10/31 10:04:34;;;;;;;;;0.00;0.00;;;;;12.66;96.21;100109.47;5025677;28;9250;-69
2023/10/31 10:07:01;;;;;;;;;0.00;0.00;;;;;12.67;95.95;100108.41;5030606;28;9303;-70
2023/10/31 10:09:29;;;;;;;;;1.00;1.00;;;;;12.69;95.49;100114.41;5030036;28;9618;-70
2023/10/31 10:11:56;;;;;;;;;0.67;0.67;;;;;12.66;95.17;100105.94;5035807;28;9251;-69
2023/10/31 10:14:28;;;;;;;;;0.00;0.00;;;;;12.70;95.14;100115.22;5024067;28;9237;-69
2023/10/31 10:16:55;;;;;;;;;0.00;0.00;;;;;12.77;94.91;100116.81;5024486;28;9310;-69
2023/10/31 10:19:22;;;;;;;;;0.00;0.00;;;;;12.89;94.59;100129.56;5020781;28;9263;-70
2023/10/31 10:21:54;;;;;;;;;0.67;0.00;;;;;12.94;94.34;100133.22;5021078;28;9373;-69
2023/10/31 10:24:21;;;;;;;;;1.00;1.00;;;;;12.84;93.24;100133.75;5045873;28;9164;-69
2023/10/31 10:26:49;;;;;;;;;1.33;1.00;;;;;12.74;93.38;100138.84;5030199;28;9047;-68
2023/10/31 10:29:15;;;;;;;;;0.67;0.67;;;;;12.63;94.05;100139.59;5028349;28;9258;-67
2023/10/31 10:31:42;;;;;;;;;0.00;0.00;;;;;12.56;94.58;100137.00;5028998;28;10022;-66
2023/10/31 10:34:09;;;;;;;;;1.00;1.00;;;;;12.54;94.70;100130.16;5029253;28;9291;-68
2023/10/31 10:36:35;;;;;;;;;0.00;0.00;;;;;12.52;95.02;100141.19;5030290;28;9177;-67
2023/10/31 10:39:03;;;;;;;;;1.00;1.00;;;;;12.49;95.26;100135.41;5028982;28;9428;-65
2023/10/31 10:41:34;;;;;;;;;0.00;0.00;;;;;12.47;95.07;100138.31;5030182;28;9229;-65
2023/10/31 10:44:05;;;;;;;;;0.00;0.00;;;;;12.46;95.38;100146.66;5030196;28;9053;-66
2023/10/31 10:46:34;;;;;;;;;0.33;0.00;;;;;12.43;95.38;100145.22;5029107;28;9237;-66
2023/10/31 10:49:04;;;;;;;;;1.00;0.00;;;;;12.41;95.23;100150.03;5026689;28;9318;-66
2023/10/31 10:51:43;;;;;;;;;2.00;0.33;;;;;12.39;95.48;100154.81;5029953;28;9327;-66
2023/10/31 10:54:26;;;;;;;;;0.00;0.00;;;;;12.38;95.55;100153.16;5010240;28;9308;-65
2023/10/31 10:57:09;;;;;;;;;0.00;0.00;;;;;12.41;95.64;100147.31;5008437;28;9422;-66
2023/10/31 10:59:43;;;;;;;;;0.00;0.00;;;;;12.43;95.61;100147.09;5019626;28;9421;-65
2023/10/31 11:02:12;;;;;;;;;0.00;0.00;;;;;12.46;95.91;100152.06;5021058;28;9383;-66
2023/10/31 11:04:41;;;;;;;;;0.00;0.00;;;;;12.48;95.63;100153.50;5028365;28;9331;-66
2023/10/31 11:07:09;;;;;;;;;0.00;0.00;;;;;12.48;95.65;100148.09;5019908;28;9467;-65
2023/10/31 11:09:36;;;;;;;;;0.00;0.00;;;;;12.51;95.13;100152.19;5029759;28;9354;-66
2023/10/31 11:12:03;;;;;;;;;0.00;0.00;;;;;12.53;95.02;100158.22;5011354;28;10175;-65
2023/10/31 11:14:32;;;;;;;;;0.00;0.00;;;;;12.58;95.36;100152.97;5028842;28;9482;-65
2023/10/31 11:17:03;;;;;;;;;0.00;0.00;;;;;12.65;94.89;100158.28;5029260;28;10158;-65
2023/10/31 11:19:30;;;;;;;;;0.00;0.00;;;;;12.67;94.53;100157.00;5029687;28;9415;-66
2023/10/31 11:22:02;;;;;;;;;0.00;0.00;;;;;12.71;93.70;100157.38;5028617;28;10177;-65
2023/10/31 11:24:31;;;;;;;;;0.00;0.00;;;;;12.72;93.27;100159.88;5041940;28;9389;-65
2023/10/31 11:27:01;;;;;;;;;0.67;0.67;;;;;12.76;93.50;100162.94;5029220;28;9479;-65
2023/10/31 11:29:28;;;;;;;;;0.00;0.00;;;;;12.79;93.15;100166.00;5023897;28;9346;-66
2023/10/31 11:31:56;;;;;;;;;1.00;1.00;;;;;12.91;93.07;100173.34;5028366;28;9360;-65
2023/10/31 11:34:25;;;;;;;;;0.67;0.00;;;;;12.97;92.25;100162.50;5028378;28;9313;-65
2023/10/31 11:36:52;;;;;;;;;2.00;0.00;;;;;12.94;91.95;100175.63;5028637;28;9287;-66